Flight Track Log - Related Links

Times and Time Zones

All times are in EDT time to prevent confusion due to time zone crossing. See the UAL4988 flight status page for this flight to view local times or setup timezone preferences in your user account.

Time Position Orientation Groundspeed Altitude Reporting Facility
EDT Latitude Longitude Course Direction KTS MPH feet Rate Location/Type
Thu 04:45:32 PM 41.9667 -87.8667 180° South 162 186 2,200  Level Chicago TRACON
Thu 04:46:32 PM 41.9000 -87.8667 180° South 231 266 3,900 2,014 Climbing Chicago TRACON
Thu 04:47:58 PM 41.7981 -87.8569 176° South 287 330 7,100 2,311 Climbing Chicago Center
Thu 04:49:00 PM 41.7133 -87.8614 182° South 311 358 9,600 2,516 Climbing Chicago Center
Thu 04:50:02 PM 41.6183 -87.8672 183° South 331 381 12,300 2,129 Climbing Chicago Center
Thu 04:51:04 PM 41.5231 -87.8692 181° South 358 412 14,000 1,597 Climbing Chicago Center
Thu 04:52:06 PM 41.4097 -87.8794 184° South 388 447 15,600 1,584 Climbing Chicago Center
Thu 04:53:09 PM 41.2983 -87.8872 183° South 403 464 17,300 1,344 Climbing Chicago Center
Thu 04:54:11 PM 41.1853 -87.8919 182° South 422 486 18,400 1,161 Climbing Chicago Center
Thu 04:55:13 PM 41.0661 -87.8869 178° South 428 493 19,700 1,258 Climbing Chicago Center
Thu 04:56:15 PM 40.9467 -87.8519 168° South 443 510 21,000 2,323 Climbing Chicago Center
Thu 04:57:17 PM 40.8122 -87.8444 178° South 403 464 24,500 2,177 Climbing Chicago Center
Thu 04:58:19 PM 40.7044 -87.9019 202° Southwest 424 488 25,500 816 Climbing Chicago Center
Thu 04:59:22 PM 40.5811 -87.9100 183° South 468 539 26,200 624 Climbing Chicago Center
Thu 05:00:24 PM 40.4506 -87.8714 167° South 487 560 26,800 629 Climbing Chicago Center
Thu 05:01:26 PM 40.3156 -87.8319 167° South 501 577 27,500 774 Climbing Chicago Center
Thu 05:02:28 PM 40.1717 -87.7900 167° South 508 585 28,400 871 Climbing Chicago Center
Thu 05:03:30 PM 40.0328 -87.7497 167° South 515 593 29,300 919 Climbing Chicago Center
Thu 05:04:32 PM 39.8644 -87.7014 168° South 522 601 30,300 981 Climbing Chicago Center
Thu 05:05:14 PM 39.7806 -87.6769 167° South 518 596 31,000 923 Climbing Indianapolis Center
Thu 05:06:16 PM 39.6411 -87.6372 168° South 520 598 31,900 919 Climbing Indianapolis Center
Thu 05:07:18 PM 39.4719 -87.5892 168° South 520 598 32,900 919 Climbing Indianapolis Center
Thu 05:08:20 PM 39.3319 -87.5492 168° South 518 596 33,800 1,008 Climbing Indianapolis Center
Thu 05:09:23 PM 39.1942 -87.5103 168° South 508 585 35,000 576 Climbing Indianapolis Center
Thu 05:10:25 PM 39.0503 -87.4697 168° South 500 575 35,000  Level Indianapolis Center
Thu 05:11:27 PM 38.9128 -87.4314 168° South 503 579 35,000  Level Indianapolis Center
Thu 05:12:29 PM 38.7756 -87.3931 168° South 506 582 35,000  Level Indianapolis Center
Thu 05:13:31 PM 38.6386 -87.3550 168° South 506 582 35,000  Level Indianapolis Center
Thu 05:14:33 PM 38.4753 -87.3097 168° South 499 574 35,000  Level Indianapolis Center
Thu 05:15:35 PM 38.3408 -87.2728 168° South 497 572 35,000  Level Indianapolis Center
Thu 05:16:38 PM 38.2081 -87.2361 168° South 498 573 35,000  Level Indianapolis Center
Thu 05:17:40 PM 38.0736 -87.1994 168° South 501 577 35,000  Level Indianapolis Center
Thu 05:18:42 PM 37.9119 -87.1553 168° South 500 575 35,000  Level Indianapolis Center
Thu 05:19:45 PM 37.7728 -87.1175 168° South 496 571 35,000  Level Indianapolis Center
Thu 05:20:46 PM 37.6417 -87.0822 168° South 494 568 35,000  Level Indianapolis Center
Thu 05:21:48 PM 37.5136 -87.0478 168° South 494 568 35,000  Level Indianapolis Center
Thu 05:22:50 PM 37.3556 -87.0053 168° South 491 565 35,000  Level Indianapolis Center
Thu 05:23:22 PM 37.2878 -86.9872 168° South 494 568 35,000  Level Memphis Center
Thu 05:24:24 PM 37.1528 -86.9511 168° South 490 564 35,000  Level Memphis Center
Thu 05:25:26 PM 37.0181 -86.9156 168° South 491 565 35,000  Level Memphis Center
Thu 05:26:28 PM 36.8836 -86.8800 168° South 492 566 35,000  Level Memphis Center
Thu 05:27:31 PM 36.7492 -86.8444 168° South 488 562 35,000  Level Memphis Center
Thu 05:28:33 PM 36.6147 -86.8092 168° South 487 560 35,000  Level Memphis Center
Thu 05:29:35 PM 36.4800 -86.7739 168° South 484 557 35,000  Level Memphis Center
Thu 05:30:37 PM 36.3428 -86.7381 168° South 484 557 35,000  Level Memphis Center
Thu 05:31:39 PM 36.2058 -86.7025 168° South 486 559 35,000  Level Memphis Center
Thu 05:32:41 PM 36.0592 -86.6211 156° South 495 570 35,000 -48 Level Memphis Center
Thu 05:33:43 PM 35.9425 -86.5264 147° Southeast 487 560 34,900 -677 Descending Memphis Center
Thu 05:34:45 PM 35.8256 -86.4317 147° Southeast 501 577 33,600 -912 Descending Memphis Center
Thu 05:35:48 PM 35.7081 -86.3369 147° Southeast 505 581 33,000 -288 Descending Memphis Center
Thu 05:36:50 PM 35.5911 -86.2428 147° Southeast 498 573 33,000  Level Memphis Center
Thu 05:37:52 PM 35.4717 -86.1469 147° Southeast 501 577 33,000 -726 Level Memphis Center
Thu 05:38:54 PM 35.3564 -86.0550 147° Southeast 497 572 31,500 -1,597 Descending Memphis Center
Thu 05:39:56 PM 35.2406 -85.9631 147° Southeast 493 567 29,700 -1,839 Descending Memphis Center
Thu 05:40:58 PM 35.1033 -85.8536 147° Southeast 485 558 27,700 -1,790 Descending Memphis Center
Thu 05:42:00 PM 34.9914 -85.7656 147° Southeast 476 548 26,000 -1,632 Descending Memphis Center
Thu 05:43:03 PM 34.8831 -85.6800 147° Southeast 458 527 24,300 -1,043 Descending Memphis Center
Thu 05:43:55 PM 34.7903 -85.6094 148° Southeast 473 544 24,000 -161 Descending Atlanta Center
Thu 05:44:55 PM 34.6847 -85.5242 146° Southeast 468 539 24,000  Level Atlanta Center
Thu 05:45:55 PM 34.5772 -85.4414 148° Southeast 468 539 24,000 -850 Level Atlanta Center
Thu 05:46:55 PM 34.4697 -85.3592 148° Southeast 462 532 22,300 -2,211 Descending Atlanta Center
Thu 05:48:46 PM 34.2667 -85.2000 147° Southeast 414 476 17,700 -2,400 Descending Atlanta TRACON
Thu 05:49:40 PM 34.1833 -85.1333 146° Southeast 387 445 15,700 -2,250 Descending Atlanta TRACON
Thu 05:50:46 PM 34.1000 -85.0500 140° Southeast 351 404 13,200 -1,476 Descending Atlanta TRACON
Thu 05:51:46 PM 34.0500 -84.9667 126° Southeast 326 375 12,600 -800 Descending Atlanta TRACON
Thu 05:52:46 PM 33.9833 -84.9000 140° Southeast 313 360 11,600 -1,050 Descending Atlanta TRACON
Thu 05:53:46 PM 33.9000 -84.8833 171° South 295 339 10,500 -900 Descending Atlanta TRACON
Thu 05:54:46 PM 33.8167 -84.8833 180° South 274 315 9,800 -800 Descending Atlanta TRACON
Thu 05:55:46 PM 33.7500 -84.8833 180° South 251 289 8,900 -950 Descending Atlanta TRACON
Thu 05:56:46 PM 33.6833 -84.8500 157° South 245 282 7,900 -1,000 Descending Atlanta TRACON
Thu 05:57:40 PM 33.6500 -84.8000 129° Southeast 249 287 7,000 -1,250 Descending Atlanta TRACON
Thu 05:58:46 PM 33.6333 -84.7167 103° East 246 283 5,400 -1,250 Descending Atlanta TRACON
Thu 05:59:40 PM 33.6333 -84.6500 90° East 199 229 4,500 -1,105 Descending Atlanta TRACON
Thu 06:00:40 PM 33.6333 -84.5833 90° East 195 224 3,300 -1,150 Descending Atlanta TRACON
Thu 06:01:40 PM 33.6333 -84.5167 90° East 166 191 2,200 -900 Descending Atlanta TRACON
Thu 06:02:40 PM 33.6333 -84.4833 90° East 141 162 1,500 -700 Descending Atlanta TRACON
Thu 06:04:00 PM 33.6367 -84.4279 95° East  Level Estimated

Login

Don't have an account? Register now (free) for customized features, flight alerts, and more!